createdAt,value
2022-12-13T00:14:28.469Z,12.20
2022-12-13T00:19:25.441Z,13.80
2022-12-13T00:24:22.454Z,11.18
2022-12-13T00:29:19.666Z,9.95
2022-12-13T00:34:18.325Z,11.43
2022-12-13T00:39:15.980Z,9.27
2022-12-13T00:44:14.479Z,10.38
2022-12-13T00:49:12.462Z,11.38
2022-12-13T00:54:10.483Z,10.07
2022-12-13T00:59:08.166Z,10.88
2022-12-13T01:04:06.301Z,9.75
2022-12-13T01:09:04.329Z,12.45
2022-12-13T01:14:01.977Z,12.48
2022-12-13T01:18:59.048Z,10.98
2022-12-13T01:24:01.325Z,12.27
2022-12-13T01:28:58.805Z,11.52
2022-12-13T01:33:56.825Z,9.93
2022-12-13T01:38:53.743Z,11.40
2022-12-13T01:44:00.421Z,11.18
2022-12-13T01:49:06.079Z,13.10
2022-12-13T01:54:23.528Z,10.80
2022-12-13T01:59:22.739Z,12.77
2022-12-13T02:04:29.582Z,12.50
2022-12-13T02:09:26.848Z,10.85
2022-12-13T02:14:23.861Z,14.70
2022-12-13T02:19:58.498Z,12.73
2022-12-13T02:25:12.766Z,11.15
2022-12-13T02:30:34.746Z,10.57
2022-12-13T02:35:40.085Z,12.55
2022-12-13T02:40:41.985Z,11.40
2022-12-13T02:45:45.307Z,10.35
2022-12-13T02:50:43.138Z,12.68
2022-12-13T02:55:40.312Z,14.15
2022-12-13T03:00:51.261Z,10.95
2022-12-13T03:06:23.685Z,11.07
2022-12-13T03:11:23.625Z,13.32
2022-12-13T03:16:34.028Z,10.30
2022-12-13T03:21:43.953Z,10.95
2022-12-13T03:26:44.492Z,11.18
2022-12-13T03:31:42.117Z,13.45
2022-12-13T03:36:39.379Z,10.77
2022-12-13T03:41:36.380Z,10.02
2022-12-13T03:46:33.726Z,10.68
2022-12-13T03:51:31.439Z,11.40
2022-12-13T03:56:28.526Z,11.25
2022-12-13T04:01:25.503Z,10.45
2022-12-13T04:06:25.405Z,12.02
2022-12-13T04:11:43.514Z,12.00
2022-12-13T04:21:37.344Z,12.13
2022-12-13T04:26:34.827Z,11.95
2022-12-13T04:31:31.913Z,11.00
2022-12-13T04:36:31.995Z,10.77
2022-12-13T04:41:34.996Z,12.13
2022-12-13T04:46:33.029Z,11.90
2022-12-13T04:51:31.961Z,11.63
2022-12-13T04:56:28.907Z,12.85
2022-12-13T05:01:26.033Z,13.95
2022-12-13T05:06:26.293Z,12.70
2022-12-13T05:11:24.936Z,12.15
2022-12-13T05:16:24.885Z,15.15
2022-12-13T05:21:21.804Z,13.30
2022-12-13T05:26:19.694Z,12.10
2022-12-13T05:31:23.079Z,13.48
2022-12-13T05:36:24.727Z,12.02
2022-12-13T05:41:24.873Z,14.57
2022-12-13T05:46:21.950Z,14.02
2022-12-13T05:51:18.967Z,17.45
2022-12-13T05:56:22.644Z,14.68
2022-12-13T06:01:21.223Z,13.15
2022-12-13T06:06:18.278Z,15.35
2022-12-13T06:11:31.043Z,16.85
2022-12-13T06:16:32.077Z,16.13
2022-12-13T06:21:43.456Z,16.38
2022-12-13T06:26:45.094Z,13.85
2022-12-13T06:31:43.900Z,20.00
2022-12-13T06:36:42.490Z,17.13
2022-12-13T06:41:42.328Z,14.82
2022-12-13T06:46:40.749Z,16.40
2022-12-13T06:51:38.786Z,17.77
2022-12-13T06:56:36.543Z,15.57
2022-12-13T07:01:37.598Z,13.05
2022-12-13T07:06:35.498Z,15.02
2022-12-13T07:11:36.646Z,16.58
2022-12-13T07:16:33.635Z,16.30
2022-12-13T07:21:31.441Z,13.90
2022-12-13T07:26:28.329Z,16.98
2022-12-13T07:31:26.650Z,15.95
2022-12-13T07:36:23.939Z,15.23
2022-12-13T07:41:24.098Z,15.95
2022-12-13T07:46:25.996Z,16.02
2022-12-13T07:51:32.774Z,20.20
2022-12-13T07:56:33.164Z,16.20
2022-12-13T08:01:31.753Z,19.17
2022-12-13T08:06:28.708Z,14.50
2022-12-13T08:11:26.738Z,16.83
2022-12-13T08:16:28.412Z,14.60
2022-12-13T08:21:52.833Z,20.70
2022-12-13T08:26:45.499Z,18.67
2022-12-13T08:31:42.729Z,14.95
2022-12-13T08:36:40.847Z,16.23
2022-12-13T08:41:39.427Z,18.88
2022-12-13T08:46:37.143Z,18.33
2022-12-13T08:51:35.772Z,20.20
2022-12-13T08:56:35.581Z,17.30
2022-12-13T09:01:33.218Z,17.58
2022-12-13T09:06:31.280Z,19.73
2022-12-13T09:11:34.565Z,14.90
2022-12-13T09:16:37.353Z,19.30
2022-12-13T09:21:36.860Z,16.70
2022-12-13T09:27:27.179Z,21.60
2022-12-13T09:32:33.648Z,18.63
2022-12-13T09:37:34.555Z,17.52
2022-12-13T09:42:34.595Z,15.48
2022-12-13T09:47:36.116Z,21.80
2022-12-13T09:52:39.029Z,17.02
2022-12-13T09:57:36.667Z,15.18
2022-12-13T10:02:42.445Z,15.68
2022-12-13T10:07:40.593Z,15.55
2022-12-13T10:12:39.118Z,18.98
2022-12-13T10:17:41.448Z,19.90
2022-12-13T10:22:39.400Z,16.90
2022-12-13T10:27:38.596Z,16.05
2022-12-13T10:32:54.350Z,16.40
2022-12-13T10:37:58.369Z,14.18
2022-12-13T10:43:07.498Z,16.08
2022-12-13T10:48:28.135Z,18.40
2022-12-13T10:53:32.995Z,13.55
2022-12-13T10:58:39.049Z,15.32
2022-12-13T11:03:40.612Z,17.13
2022-12-13T11:08:39.275Z,16.42
2022-12-13T11:13:39.156Z,15.50
2022-12-13T11:18:39.918Z,16.95
2022-12-13T11:23:43.636Z,15.95
2022-12-13T11:29:09.429Z,13.88
2022-12-13T11:34:23.606Z,15.50
2022-12-13T11:39:29.670Z,13.15
2022-12-13T11:44:36.035Z,16.52
2022-12-13T11:49:38.784Z,17.83
2022-12-13T11:54:51.164Z,19.02
2022-12-13T11:59:54.867Z,15.63
2022-12-13T12:05:07.016Z,19.33
2022-12-13T12:10:24.445Z,17.05
2022-12-13T12:15:33.625Z,18.23
2022-12-13T12:21:05.565Z,16.55
2022-12-13T12:26:26.243Z,16.13
2022-12-13T12:31:34.301Z,17.75
2022-12-13T12:37:03.487Z,16.50
2022-12-13T12:42:23.972Z,16.90
2022-12-13T12:53:24.816Z,14.48
2022-12-13T12:58:34.299Z,16.35
2022-12-13T13:03:36.385Z,15.82
2022-12-13T13:08:41.054Z,15.07
2022-12-13T13:13:49.424Z,16.27
2022-12-13T13:18:51.250Z,14.57
2022-12-13T13:23:48.688Z,14.27
2022-12-13T13:28:46.914Z,15.50
2022-12-13T13:33:47.527Z,15.25
2022-12-13T13:38:52.249Z,14.70
2022-12-13T13:43:53.125Z,16.05
2022-12-13T13:48:59.668Z,15.85
2022-12-13T13:54:28.669Z,14.95
2022-12-13T14:00:03.140Z,15.18
2022-12-13T14:05:42.648Z,14.00
2022-12-13T14:10:52.164Z,14.30
2022-12-13T14:16:26.202Z,14.77
2022-12-13T14:21:33.852Z,15.82
2022-12-13T14:27:10.919Z,16.50
2022-12-13T14:32:10.830Z,15.27
2022-12-13T14:42:33.247Z,15.82
2022-12-13T14:47:30.803Z,20.50
2022-12-13T14:52:35.614Z,19.40
2022-12-13T14:57:37.334Z,18.98
2022-12-13T15:02:36.698Z,18.85
2022-12-13T15:07:38.627Z,17.08
2022-12-13T15:12:38.150Z,25.58
2022-12-13T15:18:01.843Z,23.95
2022-12-13T15:23:40.343Z,21.88
2022-12-13T15:28:50.810Z,23.75
2022-12-13T15:33:52.439Z,25.50
2022-12-13T15:39:18.742Z,26.52
2022-12-13T15:44:23.296Z,21.23
2022-12-13T15:49:27.374Z,25.83
2022-12-13T15:54:28.218Z,24.77
2022-12-13T15:59:27.785Z,23.13
2022-12-13T16:04:27.625Z,26.02
2022-12-13T16:09:28.350Z,23.75
2022-12-13T16:14:39.514Z,22.25
2022-12-13T16:19:36.430Z,23.02
2022-12-13T16:24:36.962Z,23.08
2022-12-13T16:29:34.095Z,24.15
2022-12-13T16:34:32.012Z,39.40
2022-12-13T16:39:29.207Z,29.42
2022-12-13T16:44:35.238Z,30.08
2022-12-13T16:54:42.868Z,28.60
2022-12-13T16:59:41.373Z,28.80
2022-12-13T17:04:40.972Z,29.23
2022-12-13T17:09:38.789Z,39.22
2022-12-13T17:14:36.493Z,36.63
2022-12-13T17:19:34.476Z,31.40
2022-12-13T17:24:31.486Z,37.72
2022-12-13T17:29:30.586Z,36.25
2022-12-13T17:34:27.695Z,69.47
2022-12-13T17:39:25.609Z,49.00
2022-12-13T17:44:23.998Z,61.53
2022-12-13T17:49:21.257Z,61.40
2022-12-13T17:54:18.956Z,60.53
2022-12-13T17:59:20.146Z,56.20
2022-12-13T18:04:19.856Z,58.63
2022-12-13T18:09:16.902Z,63.67
2022-12-13T18:14:22.922Z,66.97
2022-12-13T18:19:21.231Z,69.75
2022-12-13T18:24:18.319Z,57.58
2022-12-13T18:29:15.804Z,49.40
2022-12-13T18:34:15.291Z,42.05
2022-12-13T18:39:13.337Z,31.42
2022-12-13T18:44:14.125Z,28.77
2022-12-13T18:49:11.316Z,26.88
2022-12-13T18:54:15.466Z,26.15
2022-12-13T18:59:14.649Z,27.17
2022-12-13T19:04:12.051Z,28.48
2022-12-13T19:09:09.132Z,31.10
2022-12-13T19:14:06.319Z,27.38
2022-12-13T19:19:09.228Z,26.52
2022-12-13T19:24:10.806Z,30.45
2022-12-13T19:29:08.260Z,30.42
2022-12-13T19:34:11.054Z,26.02
2022-12-13T19:39:11.029Z,25.73
2022-12-13T19:44:25.700Z,29.30
2022-12-13T19:49:24.785Z,26.90
2022-12-13T19:54:26.227Z,25.90
2022-12-13T19:59:27.977Z,36.17
2022-12-13T20:04:35.572Z,32.08
2022-12-13T20:09:36.631Z,32.03
2022-12-13T20:14:36.047Z,25.80
2022-12-13T20:19:39.691Z,22.75
2022-12-13T20:24:37.055Z,21.60
2022-12-13T20:29:40.630Z,21.30
2022-12-13T20:34:42.035Z,22.83
2022-12-13T20:39:41.816Z,21.80
2022-12-13T20:44:44.476Z,17.98
2022-12-13T20:49:48.396Z,20.55
2022-12-13T20:54:46.389Z,19.55
2022-12-13T20:59:43.837Z,21.48
2022-12-13T21:04:44.830Z,21.70
2022-12-13T21:09:44.612Z,18.55
2022-12-13T21:14:41.873Z,18.33
2022-12-13T21:19:40.691Z,25.15
2022-12-13T21:24:41.198Z,17.27
2022-12-13T21:29:38.258Z,17.63
2022-12-13T21:34:39.370Z,16.73
2022-12-13T21:39:36.649Z,16.13
2022-12-13T21:44:36.500Z,15.52
2022-12-13T21:50:04.654Z,16.00
2022-12-13T21:55:37.856Z,16.85
2022-12-13T22:00:25.480Z,15.15
2022-12-13T22:05:22.586Z,18.00
2022-12-13T22:10:19.626Z,17.73
2022-12-13T22:15:16.762Z,15.80
2022-12-13T22:20:18.198Z,15.48
2022-12-13T22:25:15.439Z,15.80
2022-12-13T22:30:13.419Z,12.98
2022-12-13T22:35:11.310Z,15.10
2022-12-13T22:40:10.678Z,13.95
2022-12-13T22:45:08.484Z,11.68
2022-12-13T22:50:06.515Z,15.45
2022-12-13T22:55:04.362Z,15.38
2022-12-13T23:00:02.450Z,11.57
2022-12-13T23:04:59.486Z,12.18
2022-12-13T23:09:56.847Z,12.52
2022-12-13T23:14:53.745Z,14.95
2022-12-13T23:19:53.443Z,11.75
2022-12-13T23:24:51.548Z,13.90
2022-12-13T23:29:48.978Z,13.10
2022-12-13T23:34:45.981Z,13.80
2022-12-13T23:39:43.648Z,15.32
2022-12-13T23:44:41.603Z,15.75
2022-12-13T23:49:38.542Z,15.32
2022-12-13T23:54:35.667Z,13.48
2022-12-13T23:59:33.441Z,15.38
